createdAt,value
2018-03-24T00:00:23.580Z,38.97
2018-03-24T00:02:06.705Z,33.90
2018-03-24T00:03:49.842Z,34.43
2018-03-24T00:05:32.978Z,32.27
2018-03-24T00:07:16.889Z,34.90
2018-03-24T00:09:00.037Z,32.30
2018-03-24T00:10:43.939Z,32.60
2018-03-24T00:12:27.172Z,31.93
2018-03-24T00:14:10.296Z,36.30
2018-03-24T00:15:54.181Z,29.50
2018-03-24T00:17:37.344Z,32.57
2018-03-24T00:19:20.468Z,36.87
2018-03-24T00:21:04.348Z,29.80
2018-03-24T00:22:47.461Z,33.90
2018-03-24T00:24:30.609Z,28.67
2018-03-24T00:26:13.724Z,30.27
2018-03-24T00:27:56.828Z,29.23
2018-03-24T00:29:39.967Z,35.37
2018-03-24T00:31:23.119Z,32.40
2018-03-24T00:33:06.262Z,27.87
2018-03-24T00:34:49.391Z,32.47
2018-03-24T00:36:32.647Z,29.87
2018-03-24T00:38:15.872Z,32.73
2018-03-24T00:39:59.771Z,28.60
2018-03-24T00:41:42.874Z,29.40
2018-03-24T00:43:25.981Z,29.47
2018-03-24T00:45:09.119Z,28.33
2018-03-24T00:46:52.254Z,28.13
2018-03-24T00:48:35.360Z,27.40
2018-03-24T00:50:18.490Z,28.03
2018-03-24T00:52:02.362Z,29.13
2018-03-24T00:53:45.486Z,29.30
2018-03-24T00:55:28.605Z,27.83
2018-03-24T00:57:11.717Z,31.20
2018-03-24T00:58:55.009Z,30.77
2018-03-24T01:00:38.896Z,27.73
2018-03-24T01:02:22.001Z,28.90
2018-03-24T01:04:05.114Z,28.10
2018-03-24T01:05:48.230Z,27.53
2018-03-24T01:07:31.343Z,28.80
2018-03-24T01:09:14.905Z,28.97
2018-03-24T01:10:58.034Z,27.90
2018-03-24T01:12:41.148Z,29.93
2018-03-24T01:14:24.260Z,31.00
2018-03-24T01:16:07.364Z,25.87
2018-03-24T01:17:50.468Z,27.90
2018-03-24T01:19:33.607Z,26.87
2018-03-24T01:21:16.734Z,26.30
2018-03-24T01:22:59.846Z,26.50
2018-03-24T01:24:43.059Z,29.90
2018-03-24T01:26:26.197Z,27.50
2018-03-24T01:28:10.078Z,27.23
2018-03-24T01:29:53.238Z,27.03
2018-03-24T01:31:36.350Z,25.40
2018-03-24T01:33:19.468Z,29.03
2018-03-24T01:35:02.724Z,26.10
2018-03-24T01:36:45.988Z,28.33
2018-03-24T01:38:29.116Z,26.90
2018-03-24T01:40:12.233Z,27.47
2018-03-24T01:41:55.464Z,25.97
2018-03-24T01:43:38.672Z,27.00
2018-03-24T01:45:21.810Z,27.60
2018-03-24T01:47:05.702Z,26.30
2018-03-24T01:48:48.854Z,28.77
2018-03-24T01:50:32.081Z,27.70
2018-03-24T01:52:15.948Z,28.20
2018-03-24T01:53:59.096Z,25.00
2018-03-24T01:55:42.311Z,25.10
2018-03-24T01:57:25.427Z,27.60
2018-03-24T01:59:08.534Z,28.10
2018-03-24T02:00:51.655Z,25.03
2018-03-24T02:02:34.780Z,30.93
2018-03-24T02:04:17.881Z,26.87
2018-03-24T02:06:01.022Z,26.57
2018-03-24T02:07:44.128Z,28.00
2018-03-24T02:09:27.234Z,26.77
2018-03-24T02:11:10.342Z,23.50
2018-03-24T02:12:53.452Z,21.23
2018-03-24T02:14:36.557Z,25.70
2018-03-24T02:16:19.716Z,25.37
2018-03-24T02:18:02.940Z,20.93
2018-03-24T02:19:46.195Z,20.83
2018-03-24T02:21:29.324Z,27.33
2018-03-24T02:23:12.446Z,24.90
2018-03-24T02:24:58.052Z,20.27
2018-03-24T02:26:41.173Z,22.83
2018-03-24T02:28:24.276Z,23.90
2018-03-24T02:30:08.156Z,25.70
2018-03-24T02:31:52.026Z,22.20
2018-03-24T02:33:35.129Z,25.30
2018-03-24T02:35:18.250Z,20.93
2018-03-24T02:37:01.362Z,22.53
2018-03-24T02:38:44.529Z,20.67
2018-03-24T02:40:27.660Z,22.37
2018-03-24T02:42:11.616Z,23.10
2018-03-24T02:43:54.731Z,23.00
2018-03-24T02:45:38.628Z,23.93
2018-03-24T02:47:21.743Z,22.00
2018-03-24T02:49:04.840Z,22.23
2018-03-24T02:50:47.957Z,23.77
2018-03-24T02:52:31.073Z,22.37
2018-03-24T02:54:14.211Z,24.70
2018-03-24T02:55:57.359Z,22.47
2018-03-24T02:57:41.238Z,24.80
2018-03-24T02:59:24.348Z,21.50
2018-03-24T03:01:07.489Z,24.30
2018-03-24T03:02:50.616Z,26.13
2018-03-24T03:04:33.744Z,25.43
2018-03-24T03:06:16.994Z,20.80
2018-03-24T03:08:00.121Z,23.50
2018-03-24T03:09:43.296Z,23.93
2018-03-24T03:11:26.516Z,22.53
2018-03-24T03:13:09.683Z,23.70
2018-03-24T03:14:52.954Z,20.57
2018-03-24T03:16:36.148Z,24.93
2018-03-24T03:18:19.430Z,25.70
2018-03-24T03:20:02.584Z,20.57
2018-03-24T03:21:53.997Z,26.30
2018-03-24T03:23:37.112Z,23.60
2018-03-24T03:25:20.220Z,25.67
2018-03-24T03:27:03.365Z,22.50
2018-03-24T03:28:46.509Z,23.10
2018-03-24T03:30:36.010Z,22.90
2018-03-24T03:32:19.205Z,26.87
2018-03-24T03:34:02.348Z,23.57
2018-03-24T03:35:45.668Z,23.20
2018-03-24T03:37:28.786Z,22.73
2018-03-24T03:39:11.940Z,26.97
2018-03-24T03:40:55.140Z,26.17
2018-03-24T03:42:38.243Z,22.07
2018-03-24T03:44:21.361Z,26.37
2018-03-24T03:46:04.476Z,23.00
2018-03-24T03:47:47.629Z,22.63
2018-03-24T03:49:31.508Z,23.07
2018-03-24T03:51:14.661Z,22.03
2018-03-24T03:52:57.783Z,20.30
2018-03-24T03:54:40.914Z,24.23
2018-03-24T03:56:24.875Z,23.10
2018-03-24T03:58:07.990Z,21.60
2018-03-24T03:59:51.098Z,23.30
2018-03-24T04:01:35.082Z,24.67
2018-03-24T04:03:18.191Z,28.80
2018-03-24T04:05:01.307Z,24.53
2018-03-24T04:06:44.430Z,23.20
2018-03-24T04:08:27.621Z,28.83
2018-03-24T04:10:11.622Z,26.20
2018-03-24T04:11:55.518Z,25.00
2018-03-24T04:13:38.687Z,23.60
2018-03-24T04:15:21.836Z,28.97
2018-03-24T04:17:04.972Z,26.80
2018-03-24T04:18:48.067Z,25.57
2018-03-24T04:20:31.331Z,25.17
2018-03-24T04:22:14.575Z,27.27
2018-03-24T04:23:58.471Z,24.40
2018-03-24T04:25:41.580Z,28.53
2018-03-24T04:27:24.725Z,24.83
2018-03-24T04:29:07.937Z,26.27
2018-03-24T04:30:51.864Z,23.70
2018-03-24T04:32:35.080Z,25.77
2018-03-24T04:34:18.337Z,26.57
2018-03-24T04:36:01.560Z,38.83
2018-03-24T04:37:44.736Z,26.43
2018-03-24T04:39:27.955Z,27.43
2018-03-24T04:41:11.830Z,23.23
2018-03-24T04:42:55.130Z,27.20
2018-03-24T04:44:39.062Z,25.83
2018-03-24T04:46:22.210Z,26.90
2018-03-24T04:48:05.476Z,27.37
2018-03-24T04:49:48.584Z,28.67
2018-03-24T04:51:31.816Z,25.73
2018-03-24T04:53:15.018Z,32.53
2018-03-24T04:54:58.986Z,27.00
2018-03-24T04:56:42.319Z,27.40
2018-03-24T04:58:26.227Z,28.67
2018-03-24T05:00:09.332Z,26.47
2018-03-24T05:01:52.476Z,25.17
2018-03-24T05:03:35.593Z,27.67
2018-03-24T05:05:18.810Z,30.97
2018-03-24T05:07:02.015Z,29.83
2018-03-24T05:08:45.149Z,30.87
2018-03-24T05:10:29.020Z,28.30
2018-03-24T05:12:12.153Z,29.93
2018-03-24T05:13:55.267Z,28.70
2018-03-24T05:15:38.385Z,26.47
2018-03-24T05:17:21.515Z,29.60
2018-03-24T05:19:04.621Z,27.20
2018-03-24T05:20:47.729Z,27.57
2018-03-24T05:22:30.857Z,27.53
2018-03-24T05:24:13.960Z,31.73
2018-03-24T05:25:57.129Z,32.73
2018-03-24T05:27:40.252Z,30.97
2018-03-24T05:29:24.133Z,26.57
2018-03-24T05:31:07.228Z,26.73
2018-03-24T05:32:50.361Z,27.37
2018-03-24T05:34:33.477Z,24.70
2018-03-24T05:36:16.580Z,29.40
2018-03-24T05:37:59.700Z,28.90
2018-03-24T05:39:42.813Z,28.10
2018-03-24T05:41:25.955Z,25.67
2018-03-24T05:43:09.077Z,35.30
2018-03-24T05:44:52.945Z,27.20
2018-03-24T05:46:36.046Z,27.13
2018-03-24T05:48:19.181Z,26.33
2018-03-24T05:50:03.040Z,31.97
2018-03-24T05:51:46.170Z,23.13
2018-03-24T05:53:29.304Z,28.83
2018-03-24T05:55:12.430Z,28.70
2018-03-24T05:56:55.549Z,25.73
2018-03-24T05:58:38.675Z,24.33
2018-03-24T06:00:21.788Z,24.63
2018-03-24T06:02:04.977Z,27.50
2018-03-24T06:03:48.121Z,25.57
2018-03-24T06:05:31.236Z,27.03
2018-03-24T06:07:14.405Z,27.07
2018-03-24T06:08:57.514Z,27.97
2018-03-24T06:10:40.619Z,28.97
2018-03-24T06:12:24.507Z,31.97
2018-03-24T06:14:07.612Z,32.53
2018-03-24T06:15:50.721Z,25.90
2018-03-24T06:17:33.869Z,27.73
2018-03-24T06:19:17.013Z,26.40
2018-03-24T06:21:00.884Z,25.37
2018-03-24T06:22:43.995Z,28.23
2018-03-24T06:24:27.109Z,29.90
2018-03-24T06:26:10.290Z,24.43
2018-03-24T06:27:53.479Z,24.90
2018-03-24T06:29:36.615Z,26.83
2018-03-24T06:31:20.658Z,32.43
2018-03-24T06:33:03.780Z,25.30
2018-03-24T06:34:46.897Z,25.23
2018-03-24T06:36:30.788Z,26.77
2018-03-24T06:38:13.919Z,27.30
2018-03-24T06:39:57.034Z,26.90
2018-03-24T06:41:40.166Z,28.50
2018-03-24T06:43:23.304Z,26.27
2018-03-24T06:45:07.177Z,25.97
2018-03-24T06:46:50.300Z,23.73
2018-03-24T06:48:33.432Z,25.73
2018-03-24T06:50:16.546Z,28.40
2018-03-24T06:51:59.681Z,26.17
2018-03-24T06:53:42.817Z,27.40
2018-03-24T06:55:25.957Z,28.27
2018-03-24T06:57:09.836Z,29.30
2018-03-24T06:58:52.986Z,26.10
2018-03-24T07:00:36.950Z,27.77
2018-03-24T07:02:20.836Z,24.70
2018-03-24T07:04:03.953Z,26.90
2018-03-24T07:05:47.068Z,25.20
2018-03-24T07:07:30.275Z,27.23
2018-03-24T07:09:13.418Z,28.60
2018-03-24T07:10:56.539Z,29.20
2018-03-24T07:12:40.424Z,27.30
2018-03-24T07:14:23.573Z,30.07
2018-03-24T07:16:06.813Z,26.70
2018-03-24T07:17:50.716Z,31.83
2018-03-24T07:19:33.945Z,24.73
2018-03-24T07:21:17.148Z,27.10
2018-03-24T07:23:00.977Z,26.40
2018-03-24T07:24:44.113Z,26.57
2018-03-24T07:26:27.255Z,29.20
2018-03-24T07:28:11.138Z,26.30
2018-03-24T07:29:54.281Z,26.77
2018-03-24T07:31:37.392Z,25.50
2018-03-24T07:33:20.635Z,25.47
2018-03-24T07:35:04.525Z,29.60
2018-03-24T07:36:47.645Z,26.30
2018-03-24T07:38:30.779Z,26.07
2018-03-24T07:40:13.980Z,28.23
2018-03-24T07:41:57.131Z,24.10
2018-03-24T07:43:40.307Z,25.00
2018-03-24T07:45:23.452Z,29.10
2018-03-24T07:47:06.560Z,26.50
2018-03-24T07:48:49.692Z,25.70
2018-03-24T07:50:32.828Z,23.13
2018-03-24T07:52:16.733Z,26.77
2018-03-24T07:53:59.875Z,27.70
2018-03-24T07:55:43.757Z,24.30
2018-03-24T07:57:26.898Z,24.40
2018-03-24T07:59:10.038Z,23.80
2018-03-24T08:00:53.920Z,27.23
2018-03-24T08:02:37.052Z,21.80
2018-03-24T08:04:20.176Z,24.40
2018-03-24T08:06:03.328Z,23.80
2018-03-24T08:07:47.216Z,28.33
2018-03-24T08:09:30.335Z,23.33
2018-03-24T08:11:13.453Z,23.53
2018-03-24T08:12:56.575Z,21.73
2018-03-24T08:14:39.717Z,30.90
2018-03-24T08:16:22.930Z,20.50
2018-03-24T08:18:06.077Z,24.40
2018-03-24T08:19:49.213Z,21.90
2018-03-24T08:21:32.417Z,20.53
2018-03-24T08:23:15.544Z,20.20
2018-03-24T08:24:58.666Z,20.90
2018-03-24T08:26:41.790Z,24.67
2018-03-24T08:28:24.909Z,23.90
2018-03-24T08:30:08.076Z,24.90
2018-03-24T08:31:51.979Z,25.80
2018-03-24T08:33:35.092Z,20.57
2018-03-24T08:35:18.209Z,20.00
2018-03-24T08:37:01.336Z,24.70
2018-03-24T08:38:44.444Z,23.17
2018-03-24T08:40:27.579Z,24.03
2018-03-24T08:42:11.518Z,21.07
2018-03-24T08:43:54.742Z,21.00
2018-03-24T08:45:37.872Z,23.50
2018-03-24T08:47:21.786Z,21.70
2018-03-24T08:49:04.916Z,18.60
2018-03-24T08:50:48.808Z,23.00
2018-03-24T08:52:31.937Z,21.37
2018-03-24T08:54:15.060Z,20.77
2018-03-24T08:55:58.995Z,20.23
2018-03-24T08:57:42.135Z,19.33
2018-03-24T08:59:26.013Z,22.00
2018-03-24T09:01:09.254Z,21.47
2018-03-24T09:02:52.387Z,26.10
2018-03-24T09:04:35.617Z,20.97
2018-03-24T09:06:19.541Z,20.00
2018-03-24T09:08:02.745Z,24.10
2018-03-24T09:09:45.877Z,21.70
2018-03-24T09:11:29.089Z,22.40
2018-03-24T09:13:12.197Z,23.00
2018-03-24T09:14:55.426Z,24.90
2018-03-24T09:16:38.654Z,22.43
2018-03-24T09:18:22.547Z,21.10
2018-03-24T09:20:05.693Z,23.13
2018-03-24T09:21:48.861Z,22.67
2018-03-24T09:23:31.981Z,22.67
2018-03-24T09:25:15.150Z,22.40
2018-03-24T09:26:58.380Z,21.10
2018-03-24T09:28:42.251Z,23.80
2018-03-24T09:30:25.384Z,23.37
2018-03-24T09:32:08.516Z,21.70
2018-03-24T09:33:51.651Z,21.07
2018-03-24T09:35:34.795Z,25.10
2018-03-24T09:37:18.686Z,23.63
2018-03-24T09:39:01.833Z,20.73
2018-03-24T09:40:45.777Z,20.13
2018-03-24T09:42:29.663Z,22.03
2018-03-24T09:44:12.794Z,22.73
2018-03-24T09:45:55.921Z,19.90
2018-03-24T09:47:39.041Z,23.50
2018-03-24T09:49:22.192Z,23.97
2018-03-24T09:51:05.325Z,20.20
2018-03-24T09:52:48.497Z,24.60
2018-03-24T09:54:31.573Z,27.23
2018-03-24T09:56:14.713Z,22.40
2018-03-24T09:57:57.939Z,22.90
2018-03-24T09:59:41.072Z,21.73
2018-03-24T10:01:24.974Z,24.20
2018-03-24T10:03:08.113Z,21.00
2018-03-24T10:04:51.233Z,22.43
2018-03-24T10:06:34.365Z,25.63
2018-03-24T10:08:18.257Z,27.10
2018-03-24T10:10:01.395Z,24.07
2018-03-24T10:11:45.317Z,26.27
2018-03-24T10:13:28.433Z,24.20
2018-03-24T10:15:11.566Z,28.70
2018-03-24T10:16:54.697Z,24.17
2018-03-24T10:18:38.590Z,22.60
2018-03-24T10:20:21.732Z,21.93
2018-03-24T10:24:30.371Z,24.80
2018-03-24T10:26:14.305Z,21.80
2018-03-24T10:27:57.433Z,20.90
2018-03-24T10:29:41.357Z,22.20
2018-03-24T10:31:25.265Z,20.07
2018-03-24T10:33:08.397Z,37.23
2018-03-24T10:34:57.080Z,24.93
2018-03-24T10:36:40.263Z,21.67
2018-03-24T10:38:23.384Z,18.53
2018-03-24T10:40:06.553Z,20.30
2018-03-24T10:41:49.718Z,19.80
2018-03-24T10:43:38.506Z,17.50
2018-03-24T10:45:21.645Z,25.40
2018-03-24T10:47:04.784Z,17.30
2018-03-24T10:48:48.003Z,18.37
2018-03-24T10:50:31.841Z,20.53
2018-03-24T10:52:14.984Z,14.57
2018-03-24T10:53:58.877Z,16.87
2018-03-24T10:55:42.142Z,14.23
2018-03-24T10:57:25.301Z,13.80
2018-03-24T10:59:08.524Z,17.03
2018-03-24T11:00:57.391Z,19.00
2018-03-24T11:02:40.564Z,18.67
2018-03-24T11:04:23.709Z,21.07
2018-03-24T11:06:06.874Z,19.33
2018-03-24T11:07:51.048Z,16.40
2018-03-24T11:09:34.262Z,19.50
2018-03-24T11:11:17.416Z,18.50
2018-03-24T11:13:00.569Z,21.43
2018-03-24T11:14:44.485Z,17.97
2018-03-24T11:16:27.645Z,18.40
2018-03-24T11:18:10.796Z,17.60
2018-03-24T11:19:53.963Z,16.27
2018-03-24T11:21:37.070Z,17.27
2018-03-24T11:23:21.071Z,17.10
2018-03-24T11:25:04.212Z,17.50
2018-03-24T11:26:47.328Z,16.83
2018-03-24T11:28:31.264Z,17.13
2018-03-24T11:30:14.398Z,16.50
2018-03-24T11:31:58.341Z,16.77
2018-03-24T11:33:42.217Z,16.87
2018-03-24T11:35:25.471Z,17.57
2018-03-24T11:37:08.672Z,23.70
2018-03-24T11:38:51.836Z,15.33
2018-03-24T11:40:35.684Z,15.60
2018-03-24T11:42:18.812Z,16.70
2018-03-24T11:44:01.944Z,17.33
2018-03-24T11:45:45.133Z,14.80
2018-03-24T11:47:28.301Z,15.33
2018-03-24T11:49:12.206Z,15.03
2018-03-24T11:50:56.186Z,19.83
2018-03-24T11:52:40.871Z,16.93
2018-03-24T11:54:42.113Z,20.67
2018-03-24T11:56:25.268Z,21.00
2018-03-24T11:58:08.423Z,17.03
2018-03-24T11:59:52.347Z,20.97
2018-03-24T12:01:35.501Z,17.17
2018-03-24T12:03:18.650Z,21.33
2018-03-24T12:05:01.756Z,18.40
2018-03-24T12:06:44.872Z,17.63
2018-03-24T12:08:28.011Z,21.33
2018-03-24T12:10:11.247Z,17.67
2018-03-24T12:11:54.366Z,18.50
2018-03-24T12:13:38.714Z,18.30
2018-03-24T12:15:22.078Z,18.17
2018-03-24T12:17:05.498Z,19.60
2018-03-24T12:18:48.961Z,17.23
2018-03-24T12:20:32.522Z,19.27
2018-03-24T12:22:22.708Z,17.40
2018-03-24T12:24:06.128Z,15.53
2018-03-24T12:25:49.648Z,18.50
2018-03-24T12:27:33.059Z,20.20
2018-03-24T12:29:17.528Z,20.40
2018-03-24T12:31:01.795Z,19.33
2018-03-24T12:32:45.204Z,17.63
2018-03-24T12:34:28.526Z,19.93
2018-03-24T12:36:11.780Z,16.37
2018-03-24T12:37:55.238Z,17.00
2018-03-24T12:39:39.848Z,27.60
2018-03-24T12:41:23.417Z,21.80
2018-03-24T12:43:06.884Z,18.70
2018-03-24T12:44:50.429Z,20.53
2018-03-24T12:46:34.589Z,20.90
2018-03-24T12:48:18.479Z,18.20
2018-03-24T12:50:03.494Z,19.83
2018-03-24T12:51:47.573Z,17.37
2018-03-24T12:53:30.904Z,19.97
2018-03-24T12:55:14.379Z,21.03
2018-03-24T12:56:58.627Z,19.10
2018-03-24T12:58:42.151Z,19.47
2018-03-24T13:00:25.589Z,19.63
2018-03-24T13:02:09.096Z,21.87
2018-03-24T13:03:52.376Z,26.70
2018-03-24T13:05:36.256Z,33.63
2018-03-24T13:07:19.784Z,19.80
2018-03-24T13:09:03.306Z,19.60
2018-03-24T13:10:46.783Z,54.93
2018-03-24T13:12:30.416Z,29.53
2018-03-24T13:14:13.807Z,25.73
2018-03-24T13:15:57.179Z,22.67
2018-03-24T13:17:40.305Z,23.73
2018-03-24T13:19:23.523Z,21.83
2018-03-24T13:21:06.670Z,21.70
2018-03-24T13:22:50.585Z,27.40
2018-03-24T13:24:35.213Z,23.20
2018-03-24T13:26:18.413Z,21.27
2018-03-24T13:28:01.544Z,22.73
2018-03-24T13:29:44.775Z,21.80
2018-03-24T13:31:28.018Z,20.17
2018-03-24T13:33:11.951Z,22.80
2018-03-24T13:34:55.072Z,20.40
2018-03-24T13:36:38.389Z,24.67
2018-03-24T13:38:22.298Z,27.07
2018-03-24T13:40:05.467Z,25.20
2018-03-24T13:41:48.653Z,25.50
2018-03-24T13:43:31.777Z,30.33
2018-03-24T13:45:16.321Z,29.20
2018-03-24T13:47:00.213Z,27.40
2018-03-24T13:48:43.340Z,24.57
2018-03-24T13:50:26.487Z,30.23
2018-03-24T13:52:10.382Z,23.67
2018-03-24T13:53:53.524Z,25.30
2018-03-24T13:55:36.677Z,24.70
2018-03-24T13:57:20.657Z,30.50
2018-03-24T13:59:03.796Z,26.23
2018-03-24T14:00:47.008Z,28.57
2018-03-24T14:02:30.135Z,29.73
2018-03-24T14:04:13.257Z,33.70
2018-03-24T14:05:57.911Z,25.73
2018-03-24T14:07:42.545Z,35.10
2018-03-24T14:09:25.765Z,36.70
2018-03-24T14:11:09.672Z,33.87
2018-03-24T14:12:52.901Z,28.13
2018-03-24T14:14:36.031Z,27.83
2018-03-24T14:16:19.282Z,28.80
2018-03-24T14:18:03.173Z,31.80
2018-03-24T14:19:46.325Z,32.23
2018-03-24T14:21:30.229Z,27.97
2018-03-24T14:23:13.452Z,30.93
2018-03-24T14:24:56.586Z,35.73
2018-03-24T14:26:41.223Z,28.20
2018-03-24T14:28:24.377Z,37.00
2018-03-24T14:30:08.293Z,106.13
2018-03-24T14:31:51.497Z,101.40
2018-03-24T14:33:34.638Z,48.50
2018-03-24T14:35:18.564Z,48.80
2018-03-24T14:37:04.395Z,42.00
2018-03-24T14:38:47.526Z,30.37
2018-03-24T14:40:30.658Z,29.33
2018-03-24T14:42:13.816Z,40.03
2018-03-24T14:43:57.724Z,30.97
2018-03-24T14:45:40.910Z,31.10
2018-03-24T14:47:24.001Z,32.63
2018-03-24T14:49:07.108Z,27.77
2018-03-24T14:50:50.225Z,25.50
2018-03-24T14:52:33.354Z,28.27
2018-03-24T14:54:16.516Z,25.67
2018-03-24T14:55:59.691Z,26.40
2018-03-24T14:57:42.844Z,29.17
2018-03-24T14:59:25.986Z,28.90
2018-03-24T15:01:09.868Z,28.43
2018-03-24T15:02:53.123Z,28.50
2018-03-24T15:04:36.244Z,27.57
2018-03-24T15:06:19.466Z,31.00
2018-03-24T15:08:02.695Z,29.67
2018-03-24T15:09:46.589Z,25.67
2018-03-24T15:11:29.732Z,28.43
2018-03-24T15:13:12.942Z,28.00
2018-03-24T15:14:56.891Z,26.93
2018-03-24T15:16:41.092Z,29.13
2018-03-24T15:18:24.240Z,26.70
2018-03-24T15:20:07.390Z,29.77
2018-03-24T15:21:51.323Z,28.10
2018-03-24T15:23:35.244Z,25.07
2018-03-24T15:25:19.166Z,24.27
2018-03-24T15:27:02.312Z,26.00
2018-03-24T15:29:04.274Z,23.87
2018-03-24T15:31:05.200Z,26.97
2018-03-24T15:32:54.724Z,29.40
2018-03-24T15:34:55.886Z,26.73
2018-03-24T15:36:45.538Z,29.07
2018-03-24T15:38:28.766Z,29.40
2018-03-24T15:40:11.901Z,28.27
2018-03-24T15:41:55.816Z,30.83
2018-03-24T15:43:38.955Z,34.80
2018-03-24T15:45:22.828Z,33.13
2018-03-24T15:47:05.943Z,28.83
2018-03-24T15:48:49.066Z,31.67
2018-03-24T15:50:32.192Z,31.40
2018-03-24T15:52:15.305Z,31.77
2018-03-24T15:53:58.439Z,31.30
2018-03-24T15:55:41.602Z,28.97
2018-03-24T15:57:24.747Z,29.80
2018-03-24T15:59:07.873Z,30.10
2018-03-24T16:00:51.034Z,30.00
2018-03-24T16:02:35.041Z,31.13
2018-03-24T16:04:18.292Z,29.17
2018-03-24T16:06:02.175Z,29.23
2018-03-24T16:07:45.288Z,27.00
2018-03-24T16:09:28.418Z,31.70
2018-03-24T16:11:11.585Z,27.20
2018-03-24T16:12:55.659Z,32.40
2018-03-24T16:14:39.511Z,32.70
2018-03-24T16:16:22.625Z,30.83
2018-03-24T16:18:05.777Z,28.33
2018-03-24T16:19:49.700Z,33.80
2018-03-24T16:21:32.810Z,32.53
2018-03-24T16:23:15.958Z,33.63
2018-03-24T16:24:59.874Z,30.43
2018-03-24T16:26:43.064Z,28.30
2018-03-24T16:28:26.184Z,28.90
2018-03-24T16:30:09.302Z,31.40
2018-03-24T16:31:52.426Z,32.80
2018-03-24T16:33:35.563Z,28.70
2018-03-24T16:35:18.773Z,29.23
2018-03-24T16:37:01.912Z,30.77
2018-03-24T16:38:45.855Z,38.57
2018-03-24T16:40:28.981Z,30.70
2018-03-24T16:42:12.109Z,30.80
2018-03-24T16:43:55.251Z,35.07
2018-03-24T16:45:38.368Z,38.30
2018-03-24T16:47:21.478Z,31.53
2018-03-24T16:49:05.393Z,31.93
2018-03-24T16:50:48.512Z,30.33
2018-03-24T16:52:31.631Z,42.40
2018-03-24T16:54:14.782Z,37.07
2018-03-24T16:55:58.012Z,38.27
2018-03-24T16:57:41.122Z,31.40
2018-03-24T16:59:24.356Z,31.20
2018-03-24T17:01:07.469Z,31.10
2018-03-24T17:02:50.580Z,27.50
2018-03-24T17:04:34.493Z,32.43
2018-03-24T17:06:17.800Z,35.60
2018-03-24T17:08:00.920Z,35.70
2018-03-24T17:09:44.069Z,37.20
2018-03-24T17:11:27.184Z,35.10
2018-03-24T17:13:10.306Z,33.70
2018-03-24T17:14:53.745Z,39.93
2018-03-24T17:16:37.630Z,35.20
2018-03-24T17:18:21.553Z,34.90
2018-03-24T17:20:04.754Z,34.00
2018-03-24T17:21:47.932Z,35.27
2018-03-24T17:23:31.162Z,35.97
2018-03-24T17:25:15.076Z,38.73
2018-03-24T17:26:58.214Z,35.30
2018-03-24T17:28:42.455Z,37.13
2018-03-24T17:30:25.676Z,36.70
2018-03-24T17:32:09.579Z,32.30
2018-03-24T17:33:52.830Z,36.57
2018-03-24T17:35:36.761Z,39.90
2018-03-24T17:37:20.676Z,65.00
2018-03-24T17:39:03.786Z,39.57
2018-03-24T17:40:46.933Z,37.30
2018-03-24T17:42:30.835Z,35.53
2018-03-24T17:44:14.184Z,35.97
2018-03-24T17:45:58.079Z,38.43
2018-03-24T17:47:41.236Z,39.83
2018-03-24T17:49:25.176Z,41.90
2018-03-24T17:51:09.101Z,34.83
2018-03-24T17:52:52.989Z,36.77
2018-03-24T17:54:36.113Z,38.27
2018-03-24T17:56:19.259Z,40.33
2018-03-24T17:58:02.508Z,48.63
2018-03-24T17:59:46.417Z,37.13
2018-03-24T18:01:29.651Z,41.40
2018-03-24T18:03:13.520Z,41.47
2018-03-24T18:04:56.690Z,41.10
2018-03-24T18:06:39.822Z,44.13
2018-03-24T18:08:23.739Z,42.67
2018-03-24T18:10:06.881Z,53.73
2018-03-24T18:11:50.029Z,42.00
2018-03-24T18:13:33.193Z,41.90
2018-03-24T18:15:16.303Z,43.43
2018-03-24T18:16:59.426Z,45.23
2018-03-24T18:18:42.541Z,48.80
2018-03-24T18:20:25.680Z,47.70
2018-03-24T18:22:09.563Z,52.77
2018-03-24T18:23:52.702Z,59.87
2018-03-24T18:25:35.928Z,49.00
2018-03-24T18:27:19.105Z,49.27
2018-03-24T18:29:02.236Z,45.40
2018-03-24T18:30:45.352Z,43.80
2018-03-24T18:32:28.576Z,50.97
2018-03-24T18:34:11.704Z,53.00
2018-03-24T18:35:54.824Z,45.10
2018-03-24T18:37:37.982Z,58.97
2018-03-24T18:39:21.093Z,50.67
2018-03-24T18:41:04.993Z,58.57
2018-03-24T18:42:48.118Z,56.70
2018-03-24T18:44:31.293Z,60.93
2018-03-24T18:46:14.417Z,57.20
2018-03-24T18:47:57.678Z,59.17
2018-03-24T18:49:41.570Z,49.87
2018-03-24T18:51:24.715Z,56.57
2018-03-24T18:53:07.885Z,52.50
2018-03-24T18:54:51.024Z,55.97
2018-03-24T18:56:34.275Z,68.90
2018-03-24T18:58:17.386Z,60.97
2018-03-24T19:00:00.592Z,61.13
2018-03-24T19:01:43.836Z,57.40
2018-03-24T19:03:27.779Z,54.47
2018-03-24T19:05:11.673Z,56.77
2018-03-24T19:06:54.806Z,62.50
2018-03-24T19:08:37.975Z,59.70
2018-03-24T19:10:21.093Z,56.30
2018-03-24T19:12:04.222Z,57.30
2018-03-24T19:13:47.377Z,63.57
2018-03-24T19:15:30.518Z,61.53
2018-03-24T19:17:14.466Z,58.10
2018-03-24T19:18:57.593Z,59.13
2018-03-24T19:20:40.753Z,59.60
2018-03-24T19:22:23.894Z,58.17
2018-03-24T19:24:08.065Z,61.23
2018-03-24T19:25:51.202Z,57.63
2018-03-24T19:27:34.369Z,54.30
2018-03-24T19:29:18.258Z,55.10
2018-03-24T19:31:01.370Z,73.63
2018-03-24T19:32:44.532Z,62.13
2018-03-24T19:34:28.414Z,53.30
2018-03-24T19:36:11.532Z,55.23
2018-03-24T19:37:54.682Z,55.50
2018-03-24T19:39:37.805Z,57.63
2018-03-24T19:41:20.939Z,56.27
2018-03-24T19:43:04.847Z,55.57
2018-03-24T19:44:47.989Z,57.17
2018-03-24T19:46:31.911Z,56.73
2018-03-24T19:48:15.142Z,59.90
2018-03-24T19:49:59.091Z,60.53
2018-03-24T19:51:42.973Z,55.60
2018-03-24T19:53:26.143Z,59.50
2018-03-24T19:55:09.354Z,63.60
2018-03-24T19:56:53.245Z,59.97
2018-03-24T19:58:36.480Z,58.47
2018-03-24T20:00:19.622Z,60.23
2018-03-24T20:02:03.522Z,62.43
2018-03-24T20:03:46.678Z,60.80
2018-03-24T20:05:30.569Z,54.67
2018-03-24T20:07:13.687Z,57.53
2018-03-24T20:08:56.810Z,62.70
2018-03-24T20:10:39.936Z,58.50
2018-03-24T20:12:23.061Z,57.63
2018-03-24T20:14:06.210Z,54.77
2018-03-24T20:15:49.372Z,53.43
2018-03-24T20:17:32.497Z,65.20
2018-03-24T20:19:15.644Z,61.43
2018-03-24T20:20:59.553Z,56.97
2018-03-24T20:22:42.687Z,57.80
2018-03-24T20:24:25.817Z,59.30
2018-03-24T20:26:09.712Z,61.23
2018-03-24T20:27:52.832Z,63.90
2018-03-24T20:29:35.978Z,58.80
2018-03-24T20:31:19.118Z,66.60
2018-03-24T20:33:02.531Z,58.47
2018-03-24T20:34:46.405Z,57.97
2018-03-24T20:36:29.545Z,58.60
2018-03-24T20:38:12.698Z,60.10
2018-03-24T20:39:56.600Z,66.87
2018-03-24T20:41:39.748Z,59.87
2018-03-24T20:43:23.677Z,55.50
2018-03-24T20:45:07.598Z,54.43
2018-03-24T20:46:50.719Z,59.50
2018-03-24T20:48:34.616Z,55.53
2018-03-24T20:50:17.734Z,56.60
2018-03-24T20:52:00.865Z,58.00
2018-03-24T20:53:44.102Z,59.03
2018-03-24T20:55:28.003Z,59.70
2018-03-24T20:57:11.161Z,57.97
2018-03-24T20:58:55.220Z,57.73
2018-03-24T21:00:38.410Z,58.93
2018-03-24T21:02:22.308Z,56.13
2018-03-24T21:04:05.449Z,57.27
2018-03-24T21:05:48.590Z,61.30
2018-03-24T21:07:32.494Z,55.03
2018-03-24T21:09:15.636Z,57.42
2018-03-24T21:10:59.569Z,53.17
2018-03-24T21:12:43.473Z,53.30
2018-03-24T21:14:26.601Z,59.13
2018-03-24T21:16:09.722Z,60.90
2018-03-24T21:17:53.656Z,63.60
2018-03-24T21:19:36.841Z,55.90
2018-03-24T21:21:19.961Z,57.60
2018-03-24T21:23:03.192Z,60.83
2018-03-24T21:24:46.336Z,57.47
2018-03-24T21:26:29.486Z,58.40
2018-03-24T21:28:12.617Z,53.53
2018-03-24T21:29:55.749Z,57.70
2018-03-24T21:31:38.872Z,64.07
2018-03-24T21:33:22.848Z,64.33
2018-03-24T21:35:06.783Z,62.07
2018-03-24T21:36:54.357Z,64.90
2018-03-24T21:38:37.499Z,60.47
2018-03-24T21:40:20.716Z,64.23
2018-03-24T21:42:03.842Z,62.47
2018-03-24T21:43:47.038Z,65.83
2018-03-24T21:45:30.316Z,64.17
2018-03-24T21:47:13.451Z,59.67
2018-03-24T21:48:56.574Z,63.03
2018-03-24T21:50:39.829Z,59.23
2018-03-24T21:52:23.646Z,55.87
2018-03-24T21:54:06.797Z,59.80
2018-03-24T21:55:50.711Z,63.83
2018-03-24T21:57:33.936Z,59.13
2018-03-24T21:59:17.050Z,63.37
2018-03-24T22:01:01.998Z,51.97
2018-03-24T22:02:45.149Z,59.60
2018-03-24T22:04:29.033Z,60.47
2018-03-24T22:06:12.180Z,58.53
2018-03-24T22:07:55.325Z,60.77
2018-03-24T22:09:38.788Z,53.70
2018-03-24T22:11:21.917Z,55.43
2018-03-24T22:13:05.043Z,56.25
2018-03-24T22:14:48.261Z,57.03